Detall de PIREP

Printer-friendly versionPDF version

[2015/07/03 20:04:00]
Flight IATA:CT3404
Pilot Number:042
Company ICAO:CAT
Aircraft Type:B738/F
PAX:48
Departing Airport: LEBL
Destination Airport: GCLP
Alternate Airport:GCXO
Online: VATSIM
Route:LOTOS UM985 MGA UN851 VJF UL82 IBALU UN857 TERTO
Flight Level:F330
No Slew and time accel
No pause
Crash detect
Detect pilot in Cockpit between each 30 and 45 minutes
20:04 Zero fuel Weight: 121806 Lbs, Fuel Weight: 46040 Lbs
20:04 VATSIM:LEBL 031930Z 06006KT CAVOK 27/19 Q1022 NOSIG
20:04 VATSIM:GCLP 031930Z 01021KT 9999 SCT024 23/16 Q1020 NOSIG
20:08 Parking Brakes off
20:18 Take-off
20:18 Take off Weight: 166523 Lbs
20:18 Wind: 060º @ 006 Knots Heading: 245º
20:18 POS N41º 17´ 46´´ E002º 04´ 35´´
20:18 Flaps:4 at 168 Knots
20:18 Gear Up: 170 Knots
20:19 Flaps:3 at 173 Knots
20:20 Flaps:2 at 204 Knots
20:20 Flaps:1 at 215 Knots
20:20 Flaps:0 at 234 Knots
20:33 Wind:254º@013 Knots Heading: 228º Ground Speed: 448 Knots Altitude 25912 ft
20:39 TOC
20:39 Fuel Weight: 40344 Lb
20:48 Wind:223º@015 Knots Heading: 232º Ground Speed: 446 Knots Altitude 33257 ft
21:03 Wind:224º@012 Knots Heading: 226º Ground Speed: 449 Knots Altitude 33198 ft
21:18 Wind:230º@016 Knots Heading: 249º Ground Speed: 445 Knots Altitude 33169 ft
21:33 Wind:243º@016 Knots Heading: 232º Ground Speed: 444 Knots Altitude 33152 ft
21:48 Wind:247º@018 Knots Heading: 232º Ground Speed: 442 Knots Altitude 33143 ft
22:03 Wind:250º@017 Knots Heading: 219º Ground Speed: 445 Knots Altitude 33126 ft
22:18 Wind:283º@018 Knots Heading: 219º Ground Speed: 451 Knots Altitude 33133 ft
22:33 Wind:292º@015 Knots Heading: 218º Ground Speed: 455 Knots Altitude 33188 ft
22:47 TOD
22:47 Fuel Weight: 27879 Lb
22:48 Wind:314º@014 Knots Heading: 222º Ground Speed: 449 Knots Altitude31627 ft
23:03 Wind:276º@016 Knots Heading: 285º Ground Speed: 267 Knots Altitude 8848 ft
23:11 Flaps:1 at 215 Knots
23:11 Flaps:2 at 193 Knots
23:15 Flaps:3 at 202 Knots
23:17 Flaps:4 at 177 Knots
23:18 Wind:029º@025 Knots Heading: 017º Ground Speed: 162 Knots Altitude 3021 ft
23:22 Gear Down: 168 Knots
23:22 Flaps:5 at 167 Knots
23:22 Flaps:6 at 161 Knots
23:22 Flaps:7 at 157 Knots
23:22 Flaps:8 at 155 Knots
23:26 TouchDown:Rate -249 ft/min Speed: 149 Knots
23:27 VATSIM:GCLP 032300Z 36015KT 9999 FEW018 BKN023 22/16 Q1022 NOSIG
23:27 Land
23:27 Wind:000º@015 Knots
23:27 Heading: 305º
23:27 Flight Duration: 03:09
23:27 Landing Weight: 146950 Lbs
23:27 POS N27º 56´ 54´´ W015º 22´ 47´´
23:29 Parking brakes on
23:29 Block to Block Duration: 03:21
23:29 Final Fuel: 24986 Lbls
23:29 Spent Fuel: 21053 Lbls
23:29 Flight Length: 1265 NM
23:29 TOD Land Length: 176 NM

Exportar CSV

Powered by Drupal - Modified by Danger4k